sensor_id;sensor_type;location;lat;lon;timestamp;pressure;altitude;pressure_sealevel;temperature;humidity
37764;BME280;23602;51.084;7.090;2022-10-23T00:00:59;100327.16;;;11.39;100.00
37764;BME280;23602;51.084;7.090;2022-10-23T00:03:24;100317.66;;;11.30;100.00
37764;BME280;23602;51.084;7.090;2022-10-23T00:05:52;100307.53;;;11.25;100.00
37764;BME280;23602;51.084;7.090;2022-10-23T00:08:18;100302.97;;;11.32;100.00
37764;BME280;23602;51.084;7.090;2022-10-23T00:10:43;100330.03;;;11.44;100.00
37764;BME280;23602;51.084;7.090;2022-10-23T00:13:09;100318.09;;;11.33;100.00
37764;BME280;23602;51.084;7.090;2022-10-23T00:15:35;100318.09;;;11.27;100.00
37764;BME280;23602;51.084;7.090;2022-10-23T00:18:02;100328.41;;;11.36;100.00
37764;BME280;23602;51.084;7.090;2022-10-23T00:20:28;100321.38;;;11.29;100.00
37764;BME280;23602;51.084;7.090;2022-10-23T00:22:53;100327.78;;;11.34;100.00
37764;BME280;23602;51.084;7.090;2022-10-23T00:25:19;100310.03;;;11.20;100.00
37764;BME280;23602;51.084;7.090;2022-10-23T00:27:45;100334.41;;;11.32;100.00
37764;BME280;23602;51.084;7.090;2022-10-23T00:30:11;100331.75;;;11.25;100.00
37764;BME280;23602;51.084;7.090;2022-10-23T00:32:36;100328.00;;;11.33;100.00
37764;BME280;23602;51.084;7.090;2022-10-23T00:35:02;100317.91;;;11.15;100.00
37764;BME280;23602;51.084;7.090;2022-10-23T00:37:31;100311.88;;;11.20;100.00
37764;BME280;23602;51.084;7.090;2022-10-23T00:39:56;100310.66;;;11.16;100.00
37764;BME280;23602;51.084;7.090;2022-10-23T00:42:22;100336.72;;;11.22;100.00
37764;BME280;23602;51.084;7.090;2022-10-23T00:47:13;100329.91;;;11.26;100.00
37764;BME280;23602;51.084;7.090;2022-10-23T00:49:38;100325.94;;;11.22;100.00
37764;BME280;23602;51.084;7.090;2022-10-23T00:52:07;100338.34;;;11.29;100.00
37764;BME280;23602;51.084;7.090;2022-10-23T00:54:39;100321.63;;;11.21;100.00
37764;BME280;23602;51.084;7.090;2022-10-23T00:57:09;100329.84;;;11.39;100.00
37764;BME280;23602;51.084;7.090;2022-10-23T00:59:36;100324.63;;;11.57;100.00
37764;BME280;23602;51.084;7.090;2022-10-23T01:02:02;100315.53;;;11.58;100.00
37764;BME280;23602;51.084;7.090;2022-10-23T01:04:29;100318.63;;;11.55;100.00
37764;BME280;23602;51.084;7.090;2022-10-23T01:12:27;100315.78;;;11.43;100.00
37764;BME280;23602;51.084;7.090;2022-10-23T01:15:18;100312.06;;;11.31;100.00
37764;BME280;23602;51.084;7.090;2022-10-23T01:17:57;100319.09;;;11.39;100.00
37764;BME280;23602;51.084;7.090;2022-10-23T01:20:38;100328.81;;;11.40;100.00
37764;BME280;23602;51.084;7.090;2022-10-23T01:26:05;100332.13;;;11.42;100.00
37764;BME280;23602;51.084;7.090;2022-10-23T01:28:42;100334.19;;;11.40;100.00
37764;BME280;23602;51.084;7.090;2022-10-23T01:31:17;100332.72;;;11.44;100.00
37764;BME280;23602;51.084;7.090;2022-10-23T01:33:48;100313.31;;;11.29;100.00
37764;BME280;23602;51.084;7.090;2022-10-23T01:36:19;100297.19;;;11.22;100.00
37764;BME280;23602;51.084;7.090;2022-10-23T01:39:21;100314.75;;;11.31;100.00
37764;BME280;23602;51.084;7.090;2022-10-23T01:41:54;100298.63;;;11.38;100.00
37764;BME280;23602;51.084;7.090;2022-10-23T01:44:28;100286.41;;;11.35;100.00
37764;BME280;23602;51.084;7.090;2022-10-23T01:46:56;100277.09;;;11.38;100.00
37764;BME280;23602;51.084;7.090;2022-10-23T01:49:22;100289.91;;;11.42;100.00
37764;BME280;23602;51.084;7.090;2022-10-23T01:51:54;100294.63;;;11.47;100.00
37764;BME280;23602;51.084;7.090;2022-10-23T01:54:24;100267.16;;;11.32;100.00
37764;BME280;23602;51.084;7.090;2022-10-23T01:56:51;100261.16;;;11.30;100.00
37764;BME280;23602;51.084;7.090;2022-10-23T01:59:24;100281.59;;;11.44;100.00
37764;BME280;23602;51.084;7.090;2022-10-23T02:01:52;100256.81;;;11.29;100.00
37764;BME280;23602;51.084;7.090;2022-10-23T02:04:29;100268.81;;;11.33;100.00
37764;BME280;23602;51.084;7.090;2022-10-23T02:06:56;100254.56;;;11.26;100.00
37764;BME280;23602;51.084;7.090;2022-10-23T02:09:21;100241.53;;;11.16;100.00
37764;BME280;23602;51.084;7.090;2022-10-23T02:11:57;100237.19;;;11.22;100.00
37764;BME280;23602;51.084;7.090;2022-10-23T02:14:45;100266.94;;;11.40;100.00
37764;BME280;23602;51.084;7.090;2022-10-23T02:19:56;100259.47;;;11.42;100.00
37764;BME280;23602;51.084;7.090;2022-10-23T02:22:26;100255.94;;;11.41;100.00
37764;BME280;23602;51.084;7.090;2022-10-23T02:27:41;100237.78;;;11.30;100.00
37764;BME280;23602;51.084;7.090;2022-10-23T02:30:10;100230.38;;;11.26;100.00
37764;BME280;23602;51.084;7.090;2022-10-23T02:32:37;100258.22;;;11.44;100.00
37764;BME280;23602;51.084;7.090;2022-10-23T02:35:06;100228.47;;;11.33;100.00
37764;BME280;23602;51.084;7.090;2022-10-23T02:37:32;100233.84;;;11.33;100.00
37764;BME280;23602;51.084;7.090;2022-10-23T02:39:57;100253.84;;;11.50;100.00
37764;BME280;23602;51.084;7.090;2022-10-23T02:48:16;100227.41;;;11.40;100.00
37764;BME280;23602;51.084;7.090;2022-10-23T02:51:08;100222.81;;;11.48;100.00
37764;BME280;23602;51.084;7.090;2022-10-23T02:53:56;100200.03;;;11.50;100.00
37764;BME280;23602;51.084;7.090;2022-10-23T02:59:50;100199.22;;;11.87;100.00
37764;BME280;23602;51.084;7.090;2022-10-23T03:02:25;100178.34;;;11.83;100.00
37764;BME280;23602;51.084;7.090;2022-10-23T03:04:54;100146.13;;;11.63;100.00
37764;BME280;23602;51.084;7.090;2022-10-23T03:07:20;100169.84;;;11.86;100.00
37764;BME280;23602;51.084;7.090;2022-10-23T03:09:46;100160.34;;;11.83;100.00
37764;BME280;23602;51.084;7.090;2022-10-23T03:12:11;100155.38;;;11.80;100.00
37764;BME280;23602;51.084;7.090;2022-10-23T03:14:37;100139.91;;;12.00;100.00
37764;BME280;23602;51.084;7.090;2022-10-23T03:17:03;100164.31;;;12.05;100.00
37764;BME280;23602;51.084;7.090;2022-10-23T03:19:29;100165.19;;;11.99;100.00
37764;BME280;23602;51.084;7.090;2022-10-23T03:21:54;100154.75;;;12.10;100.00
37764;BME280;23602;51.084;7.090;2022-10-23T03:24:19;100123.16;;;11.98;100.00
37764;BME280;23602;51.084;7.090;2022-10-23T03:26:45;100103.09;;;11.94;100.00
37764;BME280;23602;51.084;7.090;2022-10-23T03:29:10;100111.09;;;12.01;100.00
37764;BME280;23602;51.084;7.090;2022-10-23T03:31:36;100104.47;;;12.03;100.00
37764;BME280;23602;51.084;7.090;2022-10-23T03:34:01;100102.78;;;12.02;100.00
37764;BME280;23602;51.084;7.090;2022-10-23T03:36:27;100078.75;;;12.08;100.00
37764;BME280;23602;51.084;7.090;2022-10-23T03:38:52;100089.44;;;12.14;100.00
37764;BME280;23602;51.084;7.090;2022-10-23T03:41:18;100070.31;;;12.22;100.00
37764;BME280;23602;51.084;7.090;2022-10-23T03:43:43;100066.81;;;12.40;100.00
37764;BME280;23602;51.084;7.090;2022-10-23T03:46:09;100043.09;;;12.30;100.00
37764;BME280;23602;51.084;7.090;2022-10-23T03:48:37;100058.88;;;12.27;100.00
37764;BME280;23602;51.084;7.090;2022-10-23T03:51:05;100065.75;;;12.23;100.00
37764;BME280;23602;51.084;7.090;2022-10-23T03:53:31;100048.09;;;12.27;100.00
37764;BME280;23602;51.084;7.090;2022-10-23T03:55:56;100058.63;;;12.28;100.00
37764;BME280;23602;51.084;7.090;2022-10-23T03:58:22;100074.28;;;12.20;100.00
37764;BME280;23602;51.084;7.090;2022-10-23T04:00:47;100067.50;;;12.35;100.00
37764;BME280;23602;51.084;7.090;2022-10-23T04:03:13;100064.03;;;12.28;100.00
37764;BME280;23602;51.084;7.090;2022-10-23T04:05:40;100053.41;;;12.15;100.00
37764;BME280;23602;51.084;7.090;2022-10-23T04:08:05;100077.00;;;12.38;100.00
37764;BME280;23602;51.084;7.090;2022-10-23T04:10:31;100068.00;;;12.44;100.00
37764;BME280;23602;51.084;7.090;2022-10-23T04:12:56;100055.56;;;12.25;100.00
37764;BME280;23602;51.084;7.090;2022-10-23T04:15:22;100052.34;;;12.16;100.00
37764;BME280;23602;51.084;7.090;2022-10-23T04:17:47;100052.94;;;12.18;100.00
37764;BME280;23602;51.084;7.090;2022-10-23T04:20:12;100052.81;;;12.31;100.00
37764;BME280;23602;51.084;7.090;2022-10-23T04:22:38;100068.22;;;12.24;100.00
37764;BME280;23602;51.084;7.090;2022-10-23T04:25:03;100076.84;;;12.33;100.00
37764;BME280;23602;51.084;7.090;2022-10-23T04:27:29;100049.63;;;12.16;100.00
37764;BME280;23602;51.084;7.090;2022-10-23T04:29:54;100057.53;;;12.18;100.00
37764;BME280;23602;51.084;7.090;2022-10-23T04:32:20;100039.22;;;12.01;100.00
37764;BME280;23602;51.084;7.090;2022-10-23T04:34:45;100056.84;;;12.22;100.00
37764;BME280;23602;51.084;7.090;2022-10-23T04:37:10;100060.84;;;12.13;100.00
37764;BME280;23602;51.084;7.090;2022-10-23T04:39:38;100051.25;;;11.99;100.00
37764;BME280;23602;51.084;7.090;2022-10-23T04:42:03;100059.53;;;11.97;100.00
37764;BME280;23602;51.084;7.090;2022-10-23T04:44:29;100068.41;;;12.04;100.00
37764;BME280;23602;51.084;7.090;2022-10-23T04:46:54;100077.84;;;12.14;100.00
37764;BME280;23602;51.084;7.090;2022-10-23T04:49:20;100055.31;;;12.08;100.00
37764;BME280;23602;51.084;7.090;2022-10-23T04:51:45;100042.59;;;11.97;100.00
37764;BME280;23602;51.084;7.090;2022-10-23T04:54:11;100059.88;;;12.08;100.00
37764;BME280;23602;51.084;7.090;2022-10-23T04:56:36;100070.16;;;12.17;100.00
37764;BME280;23602;51.084;7.090;2022-10-23T04:59:02;100056.56;;;12.05;100.00
37764;BME280;23602;51.084;7.090;2022-10-23T05:01:28;100033.66;;;11.96;100.00
37764;BME280;23602;51.084;7.090;2022-10-23T05:03:53;100055.41;;;12.20;100.00
37764;BME280;23602;51.084;7.090;2022-10-23T05:06:20;100042.66;;;12.09;100.00
37764;BME280;23602;51.084;7.090;2022-10-23T05:08:46;100048.25;;;12.32;100.00
37764;BME280;23602;51.084;7.090;2022-10-23T05:11:11;100019.47;;;12.26;100.00
37764;BME280;23602;51.084;7.090;2022-10-23T05:13:37;100023.69;;;12.40;100.00
37764;BME280;23602;51.084;7.090;2022-10-23T05:16:07;99980.88;;;12.14;100.00
37764;BME280;23602;51.084;7.090;2022-10-23T05:18:44;99991.66;;;12.14;100.00
37764;BME280;23602;51.084;7.090;2022-10-23T05:21:20;100008.47;;;12.09;100.00
37764;BME280;23602;51.084;7.090;2022-10-23T05:23:49;100021.44;;;12.19;100.00
37764;BME280;23602;51.084;7.090;2022-10-23T05:26:15;100004.22;;;12.01;100.00
37764;BME280;23602;51.084;7.090;2022-10-23T05:28:43;100024.72;;;12.21;100.00
37764;BME280;23602;51.084;7.090;2022-10-23T05:31:09;100012.47;;;12.43;100.00
37764;BME280;23602;51.084;7.090;2022-10-23T05:33:35;99989.53;;;12.16;100.00
37764;BME280;23602;51.084;7.090;2022-10-23T05:36:01;99983.78;;;12.48;100.00
37764;BME280;23602;51.084;7.090;2022-10-23T05:38:28;99963.44;;;12.34;100.00
37764;BME280;23602;51.084;7.090;2022-10-23T05:40:54;99954.31;;;12.17;100.00
37764;BME280;23602;51.084;7.090;2022-10-23T05:43:20;99943.91;;;12.21;100.00
37764;BME280;23602;51.084;7.090;2022-10-23T05:45:46;99947.56;;;12.26;100.00
37764;BME280;23602;51.084;7.090;2022-10-23T05:48:15;99931.06;;;12.23;100.00
37764;BME280;23602;51.084;7.090;2022-10-23T05:50:41;99914.59;;;12.13;100.00
37764;BME280;23602;51.084;7.090;2022-10-23T05:53:09;99950.34;;;12.38;100.00
37764;BME280;23602;51.084;7.090;2022-10-23T05:55:34;99944.81;;;12.33;100.00
37764;BME280;23602;51.084;7.090;2022-10-23T05:58:23;99944.72;;;12.39;100.00
37764;BME280;23602;51.084;7.090;2022-10-23T06:00:50;99903.03;;;12.24;100.00
37764;BME280;23602;51.084;7.090;2022-10-23T06:03:24;99885.41;;;12.28;100.00
37764;BME280;23602;51.084;7.090;2022-10-23T06:05:50;99867.88;;;12.19;100.00
37764;BME280;23602;51.084;7.090;2022-10-23T06:08:26;99876.19;;;12.17;100.00
37764;BME280;23602;51.084;7.090;2022-10-23T06:10:57;99889.88;;;12.16;100.00
37764;BME280;23602;51.084;7.090;2022-10-23T06:13:23;99872.97;;;12.09;100.00
37764;BME280;23602;51.084;7.090;2022-10-23T06:15:48;99912.75;;;12.43;100.00
37764;BME280;23602;51.084;7.090;2022-10-23T06:18:32;99889.72;;;12.11;100.00
37764;BME280;23602;51.084;7.090;2022-10-23T06:21:04;99915.38;;;12.13;100.00
37764;BME280;23602;51.084;7.090;2022-10-23T06:23:31;99933.13;;;12.21;100.00
37764;BME280;23602;51.084;7.090;2022-10-23T06:25:56;99914.06;;;12.22;100.00
37764;BME280;23602;51.084;7.090;2022-10-23T06:28:22;99913.50;;;12.32;100.00
37764;BME280;23602;51.084;7.090;2022-10-23T06:30:48;99882.00;;;12.32;100.00
37764;BME280;23602;51.084;7.090;2022-10-23T06:33:13;99872.78;;;12.40;100.00
37764;BME280;23602;51.084;7.090;2022-10-23T06:35:39;99891.88;;;12.68;100.00
37764;BME280;23602;51.084;7.090;2022-10-23T06:38:04;99863.00;;;12.57;100.00
37764;BME280;23602;51.084;7.090;2022-10-23T06:40:30;99840.28;;;12.64;100.00
37764;BME280;23602;51.084;7.090;2022-10-23T06:42:56;99845.72;;;12.76;100.00
37764;BME280;23602;51.084;7.090;2022-10-23T06:45:22;99809.59;;;12.77;100.00
37764;BME280;23602;51.084;7.090;2022-10-23T06:47:50;99844.91;;;12.87;100.00
37764;BME280;23602;51.084;7.090;2022-10-23T06:50:16;99837.72;;;12.69;100.00
37764;BME280;23602;51.084;7.090;2022-10-23T06:52:42;99870.78;;;12.77;100.00
37764;BME280;23602;51.084;7.090;2022-10-23T06:55:08;99838.41;;;12.65;100.00
37764;BME280;23602;51.084;7.090;2022-10-23T06:57:33;99861.78;;;12.83;100.00
37764;BME280;23602;51.084;7.090;2022-10-23T06:59:59;99825.97;;;12.64;100.00
37764;BME280;23602;51.084;7.090;2022-10-23T07:02:24;99819.94;;;12.80;100.00
37764;BME280;23602;51.084;7.090;2022-10-23T07:04:49;99810.06;;;12.74;100.00
37764;BME280;23602;51.084;7.090;2022-10-23T07:07:15;99831.69;;;12.97;100.00
37764;BME280;23602;51.084;7.090;2022-10-23T07:09:40;99794.19;;;13.07;100.00
37764;BME280;23602;51.084;7.090;2022-10-23T07:12:06;99776.56;;;13.05;100.00
37764;BME280;23602;51.084;7.090;2022-10-23T07:14:31;99828.09;;;13.15;100.00
37764;BME280;23602;51.084;7.090;2022-10-23T07:16:57;99779.75;;;13.37;100.00
37764;BME280;23602;51.084;7.090;2022-10-23T07:19:23;99765.91;;;13.33;100.00
37764;BME280;23602;51.084;7.090;2022-10-23T07:21:49;99795.38;;;13.35;100.00
37764;BME280;23602;51.084;7.090;2022-10-23T07:24:14;99773.69;;;13.29;100.00
37764;BME280;23602;51.084;7.090;2022-10-23T07:26:40;99755.94;;;13.34;100.00
37764;BME280;23602;51.084;7.090;2022-10-23T07:29:06;99729.09;;;13.27;100.00
37764;BME280;23602;51.084;7.090;2022-10-23T07:31:31;99734.09;;;13.47;100.00
37764;BME280;23602;51.084;7.090;2022-10-23T07:33:57;99784.53;;;13.58;100.00
37764;BME280;23602;51.084;7.090;2022-10-23T07:36:25;99774.91;;;13.62;100.00
37764;BME280;23602;51.084;7.090;2022-10-23T07:38:50;99747.22;;;13.55;100.00
37764;BME280;23602;51.084;7.090;2022-10-23T07:41:19;99740.97;;;13.66;100.00
37764;BME280;23602;51.084;7.090;2022-10-23T07:43:44;99750.25;;;13.70;100.00
37764;BME280;23602;51.084;7.090;2022-10-23T07:46:10;99716.03;;;13.75;100.00
37764;BME280;23602;51.084;7.090;2022-10-23T07:48:36;99746.72;;;13.69;100.00
37764;BME280;23602;51.084;7.090;2022-10-23T07:51:05;99726.16;;;13.68;100.00
37764;BME280;23602;51.084;7.090;2022-10-23T07:53:33;99689.91;;;13.92;100.00
37764;BME280;23602;51.084;7.090;2022-10-23T07:56:00;99716.00;;;14.15;100.00
37764;BME280;23602;51.084;7.090;2022-10-23T07:58:38;99699.41;;;13.95;100.00
37764;BME280;23602;51.084;7.090;2022-10-23T08:01:14;99667.91;;;14.01;100.00
37764;BME280;23602;51.084;7.090;2022-10-23T08:03:40;99683.97;;;14.07;100.00
37764;BME280;23602;51.084;7.090;2022-10-23T08:06:06;99645.97;;;14.14;100.00
37764;BME280;23602;51.084;7.090;2022-10-23T08:08:32;99657.41;;;14.04;100.00
37764;BME280;23602;51.084;7.090;2022-10-23T08:10:57;99727.47;;;14.22;100.00
37764;BME280;23602;51.084;7.090;2022-10-23T08:13:22;99704.53;;;14.08;100.00
37764;BME280;23602;51.084;7.090;2022-10-23T08:15:49;99694.22;;;14.22;100.00
37764;BME280;23602;51.084;7.090;2022-10-23T08:18:15;99711.63;;;14.14;100.00
37764;BME280;23602;51.084;7.090;2022-10-23T08:20:42;99682.63;;;14.38;100.00
37764;BME280;23602;51.084;7.090;2022-10-23T08:23:08;99660.47;;;14.24;100.00
37764;BME280;23602;51.084;7.090;2022-10-23T08:25:36;99654.09;;;14.47;100.00
37764;BME280;23602;51.084;7.090;2022-10-23T08:28:02;99688.03;;;14.54;100.00
37764;BME280;23602;51.084;7.090;2022-10-23T08:30:27;99673.69;;;14.71;100.00
37764;BME280;23602;51.084;7.090;2022-10-23T08:32:53;99655.72;;;14.81;100.00
37764;BME280;23602;51.084;7.090;2022-10-23T08:35:18;99656.41;;;14.72;100.00
37764;BME280;23602;51.084;7.090;2022-10-23T08:37:44;99701.78;;;14.86;100.00
37764;BME280;23602;51.084;7.090;2022-10-23T08:40:23;99684.53;;;15.09;100.00
37764;BME280;23602;51.084;7.090;2022-10-23T08:42:58;99646.75;;;15.19;100.00
37764;BME280;23602;51.084;7.090;2022-10-23T08:45:35;99687.28;;;15.14;100.00
37764;BME280;23602;51.084;7.090;2022-10-23T08:48:38;99676.72;;;15.34;100.00
37764;BME280;23602;51.084;7.090;2022-10-23T08:51:18;99619.81;;;15.29;100.00
37764;BME280;23602;51.084;7.090;2022-10-23T08:53:56;99648.91;;;15.17;100.00
37764;BME280;23602;51.084;7.090;2022-10-23T08:56:31;99633.78;;;15.21;100.00
37764;BME280;23602;51.084;7.090;2022-10-23T08:59:18;99665.34;;;15.32;100.00
37764;BME280;23602;51.084;7.090;2022-10-23T09:01:51;99652.56;;;15.28;100.00
37764;BME280;23602;51.084;7.090;2022-10-23T09:04:20;99665.72;;;15.19;100.00
37764;BME280;23602;51.084;7.090;2022-10-23T09:06:58;99636.72;;;15.41;100.00
37764;BME280;23602;51.084;7.090;2022-10-23T09:12:22;99614.19;;;15.36;100.00
37764;BME280;23602;51.084;7.090;2022-10-23T09:17:42;99626.47;;;15.43;100.00
37764;BME280;23602;51.084;7.090;2022-10-23T09:20:18;99637.31;;;15.65;100.00
37764;BME280;23602;51.084;7.090;2022-10-23T09:22:45;99610.84;;;15.72;100.00
37764;BME280;23602;51.084;7.090;2022-10-23T09:25:34;99588.88;;;15.68;100.00
37764;BME280;23602;51.084;7.090;2022-10-23T09:28:01;99587.28;;;15.72;100.00
37764;BME280;23602;51.084;7.090;2022-10-23T09:30:38;99598.84;;;15.95;100.00
37764;BME280;23602;51.084;7.090;2022-10-23T09:33:24;99589.75;;;16.06;100.00
37764;BME280;23602;51.084;7.090;2022-10-23T09:35:58;99545.75;;;15.94;100.00
37764;BME280;23602;51.084;7.090;2022-10-23T09:38:51;99567.78;;;16.07;100.00
37764;BME280;23602;51.084;7.090;2022-10-23T09:41:25;99565.25;;;16.32;100.00
37764;BME280;23602;51.084;7.090;2022-10-23T09:44:22;99574.81;;;16.40;100.00
37764;BME280;23602;51.084;7.090;2022-10-23T09:46:51;99567.09;;;16.22;100.00
37764;BME280;23602;51.084;7.090;2022-10-23T09:49:28;99577.69;;;16.23;100.00
37764;BME280;23602;51.084;7.090;2022-10-23T09:52:16;99569.72;;;16.49;100.00
37764;BME280;23602;51.084;7.090;2022-10-23T09:54:48;99551.25;;;16.45;100.00
37764;BME280;23602;51.084;7.090;2022-10-23T09:57:33;99573.38;;;16.64;100.00
37764;BME280;23602;51.084;7.090;2022-10-23T10:00:16;99575.94;;;16.44;100.00
37764;BME280;23602;51.084;7.090;2022-10-23T10:03:03;99561.78;;;16.79;100.00
37764;BME280;23602;51.084;7.090;2022-10-23T10:05:37;99563.91;;;16.72;100.00
37764;BME280;23602;51.084;7.090;2022-10-23T10:08:14;99524.59;;;16.74;100.00
37764;BME280;23602;51.084;7.090;2022-10-23T10:10:55;99539.78;;;16.75;100.00
37764;BME280;23602;51.084;7.090;2022-10-23T10:13:51;99572.97;;;16.87;100.00
37764;BME280;23602;51.084;7.090;2022-10-23T10:16:36;99559.19;;;17.09;100.00
37764;BME280;23602;51.084;7.090;2022-10-23T10:19:12;99558.88;;;16.90;100.00
37764;BME280;23602;51.084;7.090;2022-10-23T10:29:58;99512.78;;;17.11;100.00
37764;BME280;23602;51.084;7.090;2022-10-23T10:32:37;99498.09;;;17.12;100.00
37764;BME280;23602;51.084;7.090;2022-10-23T10:40:25;99494.34;;;17.18;100.00
37764;BME280;23602;51.084;7.090;2022-10-23T10:43:18;99515.56;;;17.41;100.00
37764;BME280;23602;51.084;7.090;2022-10-23T10:48:52;99495.78;;;17.55;100.00
37764;BME280;23602;51.084;7.090;2022-10-23T10:56:43;99474.53;;;17.47;100.00
37764;BME280;23602;51.084;7.090;2022-10-23T10:59:20;99447.66;;;17.31;100.00
37764;BME280;23602;51.084;7.090;2022-10-23T11:01:52;99465.56;;;17.52;100.00
37764;BME280;23602;51.084;7.090;2022-10-23T11:04:51;99435.16;;;17.40;100.00
37764;BME280;23602;51.084;7.090;2022-10-23T11:07:33;99435.19;;;17.55;100.00
37764;BME280;23602;51.084;7.090;2022-10-23T11:10:05;99428.94;;;17.54;100.00
37764;BME280;23602;51.084;7.090;2022-10-23T11:12:38;99426.47;;;17.48;100.00
37764;BME280;23602;51.084;7.090;2022-10-23T11:15:14;99428.66;;;17.36;100.00
37764;BME280;23602;51.084;7.090;2022-10-23T11:17:45;99418.31;;;17.43;100.00
37764;BME280;23602;51.084;7.090;2022-10-23T11:20:31;99448.22;;;17.63;100.00
37764;BME280;23602;51.084;7.090;2022-10-23T11:23:31;99461.25;;;17.51;100.00
37764;BME280;23602;51.084;7.090;2022-10-23T11:29:18;99464.50;;;17.38;100.00
37764;BME280;23602;51.084;7.090;2022-10-23T11:32:10;99459.28;;;17.11;100.00
37764;BME280;23602;51.084;7.090;2022-10-23T11:34:56;99470.94;;;16.96;100.00
37764;BME280;23602;51.084;7.090;2022-10-23T11:37:28;99465.97;;;16.78;100.00
37764;BME280;23602;51.084;7.090;2022-10-23T11:40:15;99411.19;;;16.81;100.00
37764;BME280;23602;51.084;7.090;2022-10-23T11:45:35;99491.94;;;16.54;100.00
37764;BME280;23602;51.084;7.090;2022-10-23T11:48:18;99513.91;;;16.58;100.00
37764;BME280;23602;51.084;7.090;2022-10-23T11:53:24;99422.41;;;16.38;100.00
37764;BME280;23602;51.084;7.090;2022-10-23T11:58:47;99387.75;;;16.55;100.00
37764;BME280;23602;51.084;7.090;2022-10-23T12:01:39;99423.44;;;17.09;100.00
37764;BME280;23602;51.084;7.090;2022-10-23T12:09:36;99413.44;;;17.65;100.00
37764;BME280;23602;51.084;7.090;2022-10-23T12:14:39;99369.69;;;17.51;100.00
37764;BME280;23602;51.084;7.090;2022-10-23T12:19:54;99360.72;;;17.71;100.00
37764;BME280;23602;51.084;7.090;2022-10-23T12:22:29;99359.63;;;17.67;100.00
37764;BME280;23602;51.084;7.090;2022-10-23T12:28:02;99360.97;;;17.85;100.00
37764;BME280;23602;51.084;7.090;2022-10-23T12:39:25;99344.41;;;17.81;100.00
37764;BME280;23602;51.084;7.090;2022-10-23T12:41:51;99347.41;;;17.80;100.00
37764;BME280;23602;51.084;7.090;2022-10-23T12:44:16;99373.72;;;17.94;100.00
37764;BME280;23602;51.084;7.090;2022-10-23T12:46:46;99321.56;;;17.77;100.00
37764;BME280;23602;51.084;7.090;2022-10-23T12:49:18;99329.22;;;17.60;100.00
37764;BME280;23602;51.084;7.090;2022-10-23T12:52:14;99329.47;;;17.68;100.00
37764;BME280;23602;51.084;7.090;2022-10-23T12:54:41;99362.59;;;17.81;100.00
37764;BME280;23602;51.084;7.090;2022-10-23T12:57:22;99328.63;;;17.78;100.00
37764;BME280;23602;51.084;7.090;2022-10-23T12:59:54;99343.88;;;17.74;100.00
37764;BME280;23602;51.084;7.090;2022-10-23T13:02:28;99319.16;;;17.65;100.00
37764;BME280;23602;51.084;7.090;2022-10-23T13:05:01;99327.03;;;17.57;100.00
37764;BME280;23602;51.084;7.090;2022-10-23T13:07:36;99325.44;;;17.61;100.00
37764;BME280;23602;51.084;7.090;2022-10-23T13:10:03;99288.47;;;17.60;100.00
37764;BME280;23602;51.084;7.090;2022-10-23T13:12:32;99295.03;;;17.54;100.00
37764;BME280;23602;51.084;7.090;2022-10-23T13:15:13;99308.53;;;17.79;100.00
37764;BME280;23602;51.084;7.090;2022-10-23T13:17:47;99302.81;;;17.76;100.00
37764;BME280;23602;51.084;7.090;2022-10-23T13:20:20;99313.41;;;17.72;100.00
37764;BME280;23602;51.084;7.090;2022-10-23T13:25:25;99286.56;;;17.60;100.00
37764;BME280;23602;51.084;7.090;2022-10-23T13:28:24;99298.00;;;17.52;100.00
37764;BME280;23602;51.084;7.090;2022-10-23T13:31:02;99276.03;;;17.34;100.00
37764;BME280;23602;51.084;7.090;2022-10-23T13:33:42;99247.53;;;17.26;100.00
37764;BME280;23602;51.084;7.090;2022-10-23T13:38:45;99276.53;;;17.41;100.00
37764;BME280;23602;51.084;7.090;2022-10-23T13:41:14;99265.66;;;17.46;100.00
37764;BME280;23602;51.084;7.090;2022-10-23T13:43:43;99266.22;;;17.53;100.00
37764;BME280;23602;51.084;7.090;2022-10-23T13:46:17;99245.31;;;17.33;100.00
37764;BME280;23602;51.084;7.090;2022-10-23T13:48:47;99244.22;;;17.29;100.00
37764;BME280;23602;51.084;7.090;2022-10-23T13:51:24;99239.91;;;17.28;100.00
37764;BME280;23602;51.084;7.090;2022-10-23T13:53:52;99234.19;;;17.30;100.00
37764;BME280;23602;51.084;7.090;2022-10-23T13:56:20;99233.13;;;17.21;100.00
37764;BME280;23602;51.084;7.090;2022-10-23T13:58:47;99240.72;;;17.29;100.00
37764;BME280;23602;51.084;7.090;2022-10-23T14:01:22;99217.63;;;17.31;100.00
37764;BME280;23602;51.084;7.090;2022-10-23T14:03:48;99240.38;;;17.50;100.00
37764;BME280;23602;51.084;7.090;2022-10-23T14:06:14;99217.88;;;17.35;100.00
37764;BME280;23602;51.084;7.090;2022-10-23T14:08:40;99220.06;;;17.33;100.00
37764;BME280;23602;51.084;7.090;2022-10-23T14:11:05;99228.50;;;17.36;100.00
37764;BME280;23602;51.084;7.090;2022-10-23T14:13:31;99228.25;;;17.23;100.00
37764;BME280;23602;51.084;7.090;2022-10-23T14:15:56;99216.28;;;17.19;100.00
37764;BME280;23602;51.084;7.090;2022-10-23T14:18:24;99235.59;;;17.07;100.00
37764;BME280;23602;51.084;7.090;2022-10-23T14:20:50;99226.06;;;17.15;100.00
37764;BME280;23602;51.084;7.090;2022-10-23T14:23:15;99235.03;;;17.15;100.00
37764;BME280;23602;51.084;7.090;2022-10-23T14:25:41;99217.41;;;17.13;100.00
37764;BME280;23602;51.084;7.090;2022-10-23T14:28:06;99224.16;;;17.30;100.00
37764;BME280;23602;51.084;7.090;2022-10-23T14:30:35;99210.84;;;17.19;100.00
37764;BME280;23602;51.084;7.090;2022-10-23T14:33:00;99215.16;;;17.35;100.00
37764;BME280;23602;51.084;7.090;2022-10-23T14:35:28;99223.31;;;17.35;100.00